sensor_id;sensor_type;location;lat;lon;timestamp;P1;durP1;ratioP1;P2;durP2;ratioP2
17283;SDS011;8760;52.248;20.952;2023-08-06T00:00:55;27.58;;;16.23;;
17283;SDS011;8760;52.248;20.952;2023-08-06T00:03:22;29.23;;;16.65;;
17283;SDS011;8760;52.248;20.952;2023-08-06T00:05:50;29.02;;;16.40;;
17283;SDS011;8760;52.248;20.952;2023-08-06T00:08:17;27.85;;;17.25;;
17283;SDS011;8760;52.248;20.952;2023-08-06T00:10:44;30.05;;;17.77;;
17283;SDS011;8760;52.248;20.952;2023-08-06T00:13:13;28.15;;;17.33;;
17283;SDS011;8760;52.248;20.952;2023-08-06T00:15:40;24.95;;;16.90;;
17283;SDS011;8760;52.248;20.952;2023-08-06T00:18:06;27.60;;;16.38;;
17283;SDS011;8760;52.248;20.952;2023-08-06T00:20:33;27.05;;;16.27;;
17283;SDS011;8760;52.248;20.952;2023-08-06T00:23:02;34.65;;;17.48;;
17283;SDS011;8760;52.248;20.952;2023-08-06T00:25:28;33.85;;;18.98;;
17283;SDS011;8760;52.248;20.952;2023-08-06T00:27:55;28.30;;;19.08;;
17283;SDS011;8760;52.248;20.952;2023-08-06T00:30:22;28.10;;;17.88;;
17283;SDS011;8760;52.248;20.952;2023-08-06T00:32:49;27.67;;;17.70;;
17283;SDS011;8760;52.248;20.952;2023-08-06T00:35:16;26.27;;;17.98;;
17283;SDS011;8760;52.248;20.952;2023-08-06T00:37:43;27.52;;;18.13;;
17283;SDS011;8760;52.248;20.952;2023-08-06T00:40:11;21.13;;;15.85;;
17283;SDS011;8760;52.248;20.952;2023-08-06T00:42:38;21.35;;;16.48;;
17283;SDS011;8760;52.248;20.952;2023-08-06T00:45:05;17.95;;;15.35;;
17283;SDS011;8760;52.248;20.952;2023-08-06T00:47:32;18.85;;;14.77;;
17283;SDS011;8760;52.248;20.952;2023-08-06T00:49:59;19.13;;;15.13;;
17283;SDS011;8760;52.248;20.952;2023-08-06T00:52:26;18.00;;;14.13;;
17283;SDS011;8760;52.248;20.952;2023-08-06T00:54:53;16.33;;;14.43;;
17283;SDS011;8760;52.248;20.952;2023-08-06T00:57:22;17.55;;;14.20;;
17283;SDS011;8760;52.248;20.952;2023-08-06T00:59:51;18.15;;;13.52;;
17283;SDS011;8760;52.248;20.952;2023-08-06T01:02:18;15.10;;;13.60;;
17283;SDS011;8760;52.248;20.952;2023-08-06T01:04:45;18.33;;;14.95;;
17283;SDS011;8760;52.248;20.952;2023-08-06T01:07:14;18.13;;;15.18;;
17283;SDS011;8760;52.248;20.952;2023-08-06T01:09:50;19.35;;;14.68;;
17283;SDS011;8760;52.248;20.952;2023-08-06T01:12:30;18.05;;;14.70;;
17283;SDS011;8760;52.248;20.952;2023-08-06T01:15:06;16.35;;;14.35;;
17283;SDS011;8760;52.248;20.952;2023-08-06T01:17:37;17.52;;;15.00;;
17283;SDS011;8760;52.248;20.952;2023-08-06T01:20:05;16.50;;;14.02;;
17283;SDS011;8760;52.248;20.952;2023-08-06T01:22:34;17.98;;;14.63;;
17283;SDS011;8760;52.248;20.952;2023-08-06T01:25:01;16.60;;;14.18;;
17283;SDS011;8760;52.248;20.952;2023-08-06T01:27:30;16.77;;;13.23;;
17283;SDS011;8760;52.248;20.952;2023-08-06T01:30:05;17.83;;;14.68;;
17283;SDS011;8760;52.248;20.952;2023-08-06T01:32:36;15.57;;;13.93;;
17283;SDS011;8760;52.248;20.952;2023-08-06T01:35:08;15.55;;;13.98;;
17283;SDS011;8760;52.248;20.952;2023-08-06T01:37:39;19.33;;;14.32;;
17283;SDS011;8760;52.248;20.952;2023-08-06T01:40:09;16.20;;;13.85;;
17283;SDS011;8760;52.248;20.952;2023-08-06T01:42:37;16.33;;;14.63;;
17283;SDS011;8760;52.248;20.952;2023-08-06T01:45:04;17.13;;;13.48;;
17283;SDS011;8760;52.248;20.952;2023-08-06T01:47:32;14.82;;;12.57;;
17283;SDS011;8760;52.248;20.952;2023-08-06T01:49:59;16.45;;;13.10;;
17283;SDS011;8760;52.248;20.952;2023-08-06T01:52:26;14.25;;;12.50;;
17283;SDS011;8760;52.248;20.952;2023-08-06T01:54:54;14.32;;;12.82;;
17283;SDS011;8760;52.248;20.952;2023-08-06T01:57:21;16.55;;;12.90;;
17283;SDS011;8760;52.248;20.952;2023-08-06T01:59:48;14.40;;;12.55;;
17283;SDS011;8760;52.248;20.952;2023-08-06T02:02:15;13.85;;;12.38;;
17283;SDS011;8760;52.248;20.952;2023-08-06T02:04:42;13.63;;;12.23;;
17283;SDS011;8760;52.248;20.952;2023-08-06T02:07:08;18.20;;;12.77;;
17283;SDS011;8760;52.248;20.952;2023-08-06T02:09:35;15.75;;;12.98;;
17283;SDS011;8760;52.248;20.952;2023-08-06T02:12:04;14.77;;;12.63;;
17283;SDS011;8760;52.248;20.952;2023-08-06T02:14:32;14.07;;;12.73;;
17283;SDS011;8760;52.248;20.952;2023-08-06T02:16:59;15.27;;;12.40;;
17283;SDS011;8760;52.248;20.952;2023-08-06T02:19:25;14.75;;;12.23;;
17283;SDS011;8760;52.248;20.952;2023-08-06T02:21:52;14.02;;;12.57;;
17283;SDS011;8760;52.248;20.952;2023-08-06T02:24:19;14.65;;;12.07;;
17283;SDS011;8760;52.248;20.952;2023-08-06T02:26:46;14.48;;;12.25;;
17283;SDS011;8760;52.248;20.952;2023-08-06T02:29:15;13.90;;;12.40;;
17283;SDS011;8760;52.248;20.952;2023-08-06T02:31:42;14.73;;;11.40;;
17283;SDS011;8760;52.248;20.952;2023-08-06T02:34:09;14.38;;;12.80;;
17283;SDS011;8760;52.248;20.952;2023-08-06T02:36:36;14.23;;;12.05;;
17283;SDS011;8760;52.248;20.952;2023-08-06T02:39:03;14.38;;;12.20;;
17283;SDS011;8760;52.248;20.952;2023-08-06T02:41:29;14.85;;;11.57;;
17283;SDS011;8760;52.248;20.952;2023-08-06T02:43:56;12.68;;;11.38;;
17283;SDS011;8760;52.248;20.952;2023-08-06T02:46:25;14.30;;;12.02;;
17283;SDS011;8760;52.248;20.952;2023-08-06T02:48:52;16.40;;;12.05;;
17283;SDS011;8760;52.248;20.952;2023-08-06T02:51:19;14.40;;;12.00;;
17283;SDS011;8760;52.248;20.952;2023-08-06T02:53:47;13.95;;;12.40;;
17283;SDS011;8760;52.248;20.952;2023-08-06T02:56:14;14.32;;;12.82;;
17283;SDS011;8760;52.248;20.952;2023-08-06T02:58:41;15.80;;;12.02;;
17283;SDS011;8760;52.248;20.952;2023-08-06T03:01:08;17.20;;;12.73;;
17283;SDS011;8760;52.248;20.952;2023-08-06T03:03:36;17.60;;;12.57;;
17283;SDS011;8760;52.248;20.952;2023-08-06T03:06:03;15.35;;;13.10;;
17283;SDS011;8760;52.248;20.952;2023-08-06T03:08:29;14.57;;;11.98;;
17283;SDS011;8760;52.248;20.952;2023-08-06T03:10:56;15.27;;;12.07;;
17283;SDS011;8760;52.248;20.952;2023-08-06T03:13:23;15.20;;;12.93;;
17283;SDS011;8760;52.248;20.952;2023-08-06T03:15:53;14.95;;;13.07;;
17283;SDS011;8760;52.248;20.952;2023-08-06T03:18:21;16.60;;;13.57;;
17283;SDS011;8760;52.248;20.952;2023-08-06T03:20:49;18.35;;;13.85;;
17283;SDS011;8760;52.248;20.952;2023-08-06T03:23:16;14.65;;;13.07;;
17283;SDS011;8760;52.248;20.952;2023-08-06T03:25:43;17.23;;;13.88;;
17283;SDS011;8760;52.248;20.952;2023-08-06T03:28:10;19.00;;;14.68;;
17283;SDS011;8760;52.248;20.952;2023-08-06T03:30:37;18.23;;;14.40;;
17283;SDS011;8760;52.248;20.952;2023-08-06T03:33:04;17.00;;;14.70;;
17283;SDS011;8760;52.248;20.952;2023-08-06T03:35:31;17.25;;;15.20;;
17283;SDS011;8760;52.248;20.952;2023-08-06T03:37:59;18.33;;;15.32;;
17283;SDS011;8760;52.248;20.952;2023-08-06T03:40:26;16.92;;;15.23;;
17283;SDS011;8760;52.248;20.952;2023-08-06T03:42:53;19.02;;;15.45;;
17283;SDS011;8760;52.248;20.952;2023-08-06T03:45:20;18.10;;;15.40;;
17283;SDS011;8760;52.248;20.952;2023-08-06T03:47:47;19.20;;;15.23;;
17283;SDS011;8760;52.248;20.952;2023-08-06T03:50:14;20.77;;;16.92;;
17283;SDS011;8760;52.248;20.952;2023-08-06T03:52:41;22.20;;;15.82;;
17283;SDS011;8760;52.248;20.952;2023-08-06T03:55:09;18.83;;;16.23;;
17283;SDS011;8760;52.248;20.952;2023-08-06T03:57:36;20.77;;;16.85;;
17283;SDS011;8760;52.248;20.952;2023-08-06T04:00:03;21.98;;;17.52;;
17283;SDS011;8760;52.248;20.952;2023-08-06T04:02:31;20.20;;;16.55;;
17283;SDS011;8760;52.248;20.952;2023-08-06T04:04:57;23.30;;;17.38;;
17283;SDS011;8760;52.248;20.952;2023-08-06T04:07:25;22.73;;;17.58;;
17283;SDS011;8760;52.248;20.952;2023-08-06T04:09:52;22.90;;;18.17;;
17283;SDS011;8760;52.248;20.952;2023-08-06T04:12:22;24.30;;;19.00;;
17283;SDS011;8760;52.248;20.952;2023-08-06T04:14:49;23.27;;;18.83;;
17283;SDS011;8760;52.248;20.952;2023-08-06T04:17:17;22.60;;;18.33;;
17283;SDS011;8760;52.248;20.952;2023-08-06T04:19:45;21.05;;;18.73;;
17283;SDS011;8760;52.248;20.952;2023-08-06T04:22:13;27.02;;;19.52;;
17283;SDS011;8760;52.248;20.952;2023-08-06T04:24:41;25.40;;;20.08;;
17283;SDS011;8760;52.248;20.952;2023-08-06T04:27:08;25.55;;;19.88;;
17283;SDS011;8760;52.248;20.952;2023-08-06T04:29:36;27.35;;;20.70;;
17283;SDS011;8760;52.248;20.952;2023-08-06T04:32:05;23.00;;;20.50;;
17283;SDS011;8760;52.248;20.952;2023-08-06T04:34:33;25.05;;;20.13;;
17283;SDS011;8760;52.248;20.952;2023-08-06T04:37:00;25.38;;;19.90;;
17283;SDS011;8760;52.248;20.952;2023-08-06T04:39:27;25.83;;;20.38;;
17283;SDS011;8760;52.248;20.952;2023-08-06T04:41:55;23.67;;;21.15;;
17283;SDS011;8760;52.248;20.952;2023-08-06T04:44:21;23.10;;;20.60;;
17283;SDS011;8760;52.248;20.952;2023-08-06T04:46:50;22.80;;;20.23;;
17283;SDS011;8760;52.248;20.952;2023-08-06T04:49:17;24.60;;;19.90;;
17283;SDS011;8760;52.248;20.952;2023-08-06T04:51:44;22.65;;;19.63;;
17283;SDS011;8760;52.248;20.952;2023-08-06T04:54:11;21.40;;;18.02;;
17283;SDS011;8760;52.248;20.952;2023-08-06T04:56:37;27.25;;;20.33;;
17283;SDS011;8760;52.248;20.952;2023-08-06T04:59:04;25.95;;;18.40;;
17283;SDS011;8760;52.248;20.952;2023-08-06T05:01:32;20.98;;;18.77;;
17283;SDS011;8760;52.248;20.952;2023-08-06T05:04:00;22.30;;;19.00;;
17283;SDS011;8760;52.248;20.952;2023-08-06T05:06:27;20.65;;;18.20;;
17283;SDS011;8760;52.248;20.952;2023-08-06T05:08:54;27.02;;;18.77;;
17283;SDS011;8760;52.248;20.952;2023-08-06T05:11:20;21.58;;;17.85;;
17283;SDS011;8760;52.248;20.952;2023-08-06T05:13:49;20.77;;;18.33;;
17283;SDS011;8760;52.248;20.952;2023-08-06T05:16:16;19.33;;;17.20;;
17283;SDS011;8760;52.248;20.952;2023-08-06T05:18:42;18.25;;;16.17;;
17283;SDS011;8760;52.248;20.952;2023-08-06T05:21:11;18.13;;;16.23;;
17283;SDS011;8760;52.248;20.952;2023-08-06T05:23:38;20.08;;;16.40;;
17283;SDS011;8760;52.248;20.952;2023-08-06T05:26:04;19.23;;;16.08;;
17283;SDS011;8760;52.248;20.952;2023-08-06T05:28:31;19.00;;;15.95;;
17283;SDS011;8760;52.248;20.952;2023-08-06T05:30:58;18.00;;;16.13;;
17283;SDS011;8760;52.248;20.952;2023-08-06T05:33:28;17.92;;;16.10;;
17283;SDS011;8760;52.248;20.952;2023-08-06T05:35:55;16.95;;;15.15;;
17283;SDS011;8760;52.248;20.952;2023-08-06T05:38:23;17.02;;;15.23;;
17283;SDS011;8760;52.248;20.952;2023-08-06T05:40:50;19.25;;;15.13;;
17283;SDS011;8760;52.248;20.952;2023-08-06T05:43:17;15.88;;;13.35;;
17283;SDS011;8760;52.248;20.952;2023-08-06T05:45:44;15.85;;;14.38;;
17283;SDS011;8760;52.248;20.952;2023-08-06T05:48:11;15.95;;;14.15;;
17283;SDS011;8760;52.248;20.952;2023-08-06T05:50:38;15.98;;;14.15;;
17283;SDS011;8760;52.248;20.952;2023-08-06T05:53:05;15.57;;;13.38;;
17283;SDS011;8760;52.248;20.952;2023-08-06T05:55:34;14.73;;;13.18;;
17283;SDS011;8760;52.248;20.952;2023-08-06T05:58:00;13.75;;;12.45;;
17283;SDS011;8760;52.248;20.952;2023-08-06T06:00:27;14.75;;;13.27;;
17283;SDS011;8760;52.248;20.952;2023-08-06T06:02:54;17.77;;;11.90;;
17283;SDS011;8760;52.248;20.952;2023-08-06T06:05:21;15.10;;;12.35;;
17283;SDS011;8760;52.248;20.952;2023-08-06T06:07:48;12.05;;;10.85;;
17283;SDS011;8760;52.248;20.952;2023-08-06T06:10:15;11.20;;;10.20;;
17283;SDS011;8760;52.248;20.952;2023-08-06T06:12:43;12.40;;;11.10;;
17283;SDS011;8760;52.248;20.952;2023-08-06T06:15:10;11.52;;;10.43;;
17283;SDS011;8760;52.248;20.952;2023-08-06T06:17:38;11.77;;;10.65;;
17283;SDS011;8760;52.248;20.952;2023-08-06T06:20:05;14.82;;;10.32;;
17283;SDS011;8760;52.248;20.952;2023-08-06T06:22:33;11.35;;;10.15;;
17283;SDS011;8760;52.248;20.952;2023-08-06T06:24:59;11.73;;;10.45;;
17283;SDS011;8760;52.248;20.952;2023-08-06T06:27:26;12.13;;;10.20;;
17283;SDS011;8760;52.248;20.952;2023-08-06T06:29:55;10.98;;;9.88;;
17283;SDS011;8760;52.248;20.952;2023-08-06T06:32:21;10.90;;;9.02;;
17283;SDS011;8760;52.248;20.952;2023-08-06T06:34:48;16.92;;;9.35;;
17283;SDS011;8760;52.248;20.952;2023-08-06T06:37:15;10.25;;;9.15;;
17283;SDS011;8760;52.248;20.952;2023-08-06T06:39:42;10.50;;;9.10;;
17283;SDS011;8760;52.248;20.952;2023-08-06T06:42:10;9.85;;;8.93;;
17283;SDS011;8760;52.248;20.952;2023-08-06T06:44:37;13.65;;;9.15;;
17283;SDS011;8760;52.248;20.952;2023-08-06T06:47:05;11.63;;;9.25;;
17283;SDS011;8760;52.248;20.952;2023-08-06T06:49:32;9.95;;;8.45;;
17283;SDS011;8760;52.248;20.952;2023-08-06T06:51:59;12.43;;;8.15;;
17283;SDS011;8760;52.248;20.952;2023-08-06T06:54:26;9.48;;;8.18;;
17283;SDS011;8760;52.248;20.952;2023-08-06T06:56:52;13.90;;;8.68;;
17283;SDS011;8760;52.248;20.952;2023-08-06T06:59:19;12.73;;;8.93;;
17283;SDS011;8760;52.248;20.952;2023-08-06T07:01:46;12.43;;;8.27;;
17283;SDS011;8760;52.248;20.952;2023-08-06T07:04:14;9.32;;;8.35;;
17283;SDS011;8760;52.248;20.952;2023-08-06T07:06:41;11.50;;;7.53;;
17283;SDS011;8760;52.248;20.952;2023-08-06T07:09:08;11.45;;;8.98;;
17283;SDS011;8760;52.248;20.952;2023-08-06T07:11:35;12.05;;;8.27;;
17283;SDS011;8760;52.248;20.952;2023-08-06T07:14:02;11.25;;;7.88;;
17283;SDS011;8760;52.248;20.952;2023-08-06T07:16:29;9.15;;;8.05;;
17283;SDS011;8760;52.248;20.952;2023-08-06T07:18:56;16.05;;;8.05;;
17283;SDS011;8760;52.248;20.952;2023-08-06T07:21:24;8.63;;;7.75;;
17283;SDS011;8760;52.248;20.952;2023-08-06T07:23:51;11.75;;;8.23;;
17283;SDS011;8760;52.248;20.952;2023-08-06T07:26:18;9.13;;;7.97;;
17283;SDS011;8760;52.248;20.952;2023-08-06T07:28:45;14.55;;;7.75;;
17283;SDS011;8760;52.248;20.952;2023-08-06T07:31:12;9.52;;;8.20;;
17283;SDS011;8760;52.248;20.952;2023-08-06T07:33:38;12.80;;;8.38;;
17283;SDS011;8760;52.248;20.952;2023-08-06T07:36:09;10.23;;;8.25;;
17283;SDS011;8760;52.248;20.952;2023-08-06T07:38:38;11.38;;;7.82;;
17283;SDS011;8760;52.248;20.952;2023-08-06T07:41:05;12.50;;;7.93;;
17283;SDS011;8760;52.248;20.952;2023-08-06T07:43:32;10.63;;;7.53;;
17283;SDS011;8760;52.248;20.952;2023-08-06T07:46:01;19.05;;;8.10;;
17283;SDS011;8760;52.248;20.952;2023-08-06T07:48:28;10.48;;;7.70;;
17283;SDS011;8760;52.248;20.952;2023-08-06T07:50:55;12.65;;;9.27;;
17283;SDS011;8760;52.248;20.952;2023-08-06T07:53:22;12.02;;;8.30;;
17283;SDS011;8760;52.248;20.952;2023-08-06T07:55:53;10.60;;;7.68;;
17283;SDS011;8760;52.248;20.952;2023-08-06T07:58:20;10.90;;;8.20;;
17283;SDS011;8760;52.248;20.952;2023-08-06T08:00:47;11.82;;;8.00;;
17283;SDS011;8760;52.248;20.952;2023-08-06T08:03:14;11.80;;;8.05;;
17283;SDS011;8760;52.248;20.952;2023-08-06T08:05:42;13.55;;;7.70;;
17283;SDS011;8760;52.248;20.952;2023-08-06T08:08:10;10.60;;;7.80;;
17283;SDS011;8760;52.248;20.952;2023-08-06T08:10:37;9.10;;;8.20;;
17283;SDS011;8760;52.248;20.952;2023-08-06T08:13:05;13.32;;;8.07;;
17283;SDS011;8760;52.248;20.952;2023-08-06T08:15:33;8.75;;;7.45;;
17283;SDS011;8760;52.248;20.952;2023-08-06T08:18:00;10.23;;;8.73;;
17283;SDS011;8760;52.248;20.952;2023-08-06T08:20:28;11.48;;;8.27;;
17283;SDS011;8760;52.248;20.952;2023-08-06T08:22:57;12.75;;;8.63;;
17283;SDS011;8760;52.248;20.952;2023-08-06T08:25:25;11.63;;;7.68;;
17283;SDS011;8760;52.248;20.952;2023-08-06T08:27:52;12.95;;;8.02;;
17283;SDS011;8760;52.248;20.952;2023-08-06T08:30:20;8.95;;;8.00;;
17283;SDS011;8760;52.248;20.952;2023-08-06T08:32:47;10.50;;;7.68;;
17283;SDS011;8760;52.248;20.952;2023-08-06T08:35:14;10.30;;;7.93;;
17283;SDS011;8760;52.248;20.952;2023-08-06T08:37:41;10.32;;;7.32;;
17283;SDS011;8760;52.248;20.952;2023-08-06T08:40:09;10.68;;;7.70;;
17283;SDS011;8760;52.248;20.952;2023-08-06T08:42:36;12.10;;;7.28;;
17283;SDS011;8760;52.248;20.952;2023-08-06T08:45:04;10.45;;;7.20;;
17283;SDS011;8760;52.248;20.952;2023-08-06T08:47:35;12.38;;;7.28;;
17283;SDS011;8760;52.248;20.952;2023-08-06T08:50:03;8.55;;;7.43;;
17283;SDS011;8760;52.248;20.952;2023-08-06T08:52:33;12.35;;;7.80;;
17283;SDS011;8760;52.248;20.952;2023-08-06T08:55:01;9.70;;;7.72;;
17283;SDS011;8760;52.248;20.952;2023-08-06T08:57:29;8.48;;;7.63;;
17283;SDS011;8760;52.248;20.952;2023-08-06T08:59:56;8.80;;;6.88;;
17283;SDS011;8760;52.248;20.952;2023-08-06T09:02:23;13.10;;;7.35;;
17283;SDS011;8760;52.248;20.952;2023-08-06T09:04:53;8.57;;;7.03;;
17283;SDS011;8760;52.248;20.952;2023-08-06T09:07:24;11.48;;;7.22;;
17283;SDS011;8760;52.248;20.952;2023-08-06T09:09:53;10.60;;;6.82;;
17283;SDS011;8760;52.248;20.952;2023-08-06T09:12:20;8.73;;;6.63;;
17283;SDS011;8760;52.248;20.952;2023-08-06T09:14:48;8.13;;;6.35;;
17283;SDS011;8760;52.248;20.952;2023-08-06T09:17:15;8.20;;;6.40;;
17283;SDS011;8760;52.248;20.952;2023-08-06T09:19:44;9.00;;;6.90;;
17283;SDS011;8760;52.248;20.952;2023-08-06T09:22:14;9.93;;;7.07;;
17283;SDS011;8760;52.248;20.952;2023-08-06T09:24:41;8.85;;;6.93;;
17283;SDS011;8760;52.248;20.952;2023-08-06T09:27:12;10.15;;;6.68;;
17283;SDS011;8760;52.248;20.952;2023-08-06T09:29:43;8.98;;;6.10;;
17283;SDS011;8760;52.248;20.952;2023-08-06T09:32:11;7.47;;;6.32;;
17283;SDS011;8760;52.248;20.952;2023-08-06T09:34:38;13.60;;;7.00;;
17283;SDS011;8760;52.248;20.952;2023-08-06T09:37:07;7.85;;;6.32;;
17283;SDS011;8760;52.248;20.952;2023-08-06T09:39:37;9.85;;;6.22;;
17283;SDS011;8760;52.248;20.952;2023-08-06T09:42:05;11.93;;;6.97;;
17283;SDS011;8760;52.248;20.952;2023-08-06T09:44:32;7.70;;;6.35;;
17283;SDS011;8760;52.248;20.952;2023-08-06T09:47:00;10.13;;;7.03;;
17283;SDS011;8760;52.248;20.952;2023-08-06T09:49:28;9.00;;;6.32;;
17283;SDS011;8760;52.248;20.952;2023-08-06T09:52:08;8.07;;;6.68;;
17283;SDS011;8760;52.248;20.952;2023-08-06T09:54:38;7.00;;;6.28;;
17283;SDS011;8760;52.248;20.952;2023-08-06T09:57:05;7.47;;;6.05;;
17283;SDS011;8760;52.248;20.952;2023-08-06T09:59:33;10.93;;;6.03;;
17283;SDS011;8760;52.248;20.952;2023-08-06T10:02:01;8.18;;;5.90;;
17283;SDS011;8760;52.248;20.952;2023-08-06T10:04:32;7.93;;;6.18;;
17283;SDS011;8760;52.248;20.952;2023-08-06T10:06:59;9.75;;;6.50;;
17283;SDS011;8760;52.248;20.952;2023-08-06T10:09:27;8.25;;;5.95;;
17283;SDS011;8760;52.248;20.952;2023-08-06T10:11:55;7.45;;;5.93;;
17283;SDS011;8760;52.248;20.952;2023-08-06T10:14:24;10.23;;;6.20;;
17283;SDS011;8760;52.248;20.952;2023-08-06T10:16:55;7.97;;;5.68;;
17283;SDS011;8760;52.248;20.952;2023-08-06T10:19:23;7.53;;;5.90;;
17283;SDS011;8760;52.248;20.952;2023-08-06T10:22:10;7.32;;;5.60;;
17283;SDS011;8760;52.248;20.952;2023-08-06T10:24:51;5.97;;;5.47;;
17283;SDS011;8760;52.248;20.952;2023-08-06T10:27:27;8.52;;;6.05;;
17283;SDS011;8760;52.248;20.952;2023-08-06T10:29:56;7.18;;;5.93;;
17283;SDS011;8760;52.248;20.952;2023-08-06T10:32:49;6.10;;;5.53;;
17283;SDS011;8760;52.248;20.952;2023-08-06T10:35:29;8.25;;;5.82;;
17283;SDS011;8760;52.248;20.952;2023-08-06T10:37:58;9.75;;;5.45;;
17283;SDS011;8760;52.248;20.952;2023-08-06T10:40:26;7.18;;;5.68;;
17283;SDS011;8760;52.248;20.952;2023-08-06T10:42:56;6.57;;;5.50;;
17283;SDS011;8760;52.248;20.952;2023-08-06T10:45:25;7.75;;;5.53;;
17283;SDS011;8760;52.248;20.952;2023-08-06T10:47:54;6.25;;;5.65;;
17283;SDS011;8760;52.248;20.952;2023-08-06T10:50:21;8.73;;;5.07;;
17283;SDS011;8760;52.248;20.952;2023-08-06T10:52:49;6.93;;;5.72;;
17283;SDS011;8760;52.248;20.952;2023-08-06T10:55:22;7.03;;;5.05;;
17283;SDS011;8760;52.248;20.952;2023-08-06T10:57:51;6.20;;;5.40;;
17283;SDS011;8760;52.248;20.952;2023-08-06T11:00:20;6.30;;;5.68;;
17283;SDS011;8760;52.248;20.952;2023-08-06T11:02:47;7.07;;;5.70;;
17283;SDS011;8760;52.248;20.952;2023-08-06T11:05:14;5.53;;;5.07;;
17283;SDS011;8760;52.248;20.952;2023-08-06T11:07:42;7.80;;;5.43;;
17283;SDS011;8760;52.248;20.952;2023-08-06T11:10:09;5.88;;;5.38;;
17283;SDS011;8760;52.248;20.952;2023-08-06T11:12:37;6.25;;;5.10;;
17283;SDS011;8760;52.248;20.952;2023-08-06T11:15:04;10.52;;;5.47;;
17283;SDS011;8760;52.248;20.952;2023-08-06T11:17:34;9.13;;;5.20;;
17283;SDS011;8760;52.248;20.952;2023-08-06T11:20:01;9.27;;;4.82;;
17283;SDS011;8760;52.248;20.952;2023-08-06T11:22:29;7.85;;;4.78;;
17283;SDS011;8760;52.248;20.952;2023-08-06T11:24:56;6.57;;;4.80;;
17283;SDS011;8760;52.248;20.952;2023-08-06T11:27:25;7.55;;;4.72;;
17283;SDS011;8760;52.248;20.952;2023-08-06T11:29:53;5.93;;;4.50;;
17283;SDS011;8760;52.248;20.952;2023-08-06T11:32:20;7.43;;;5.07;;
17283;SDS011;8760;52.248;20.952;2023-08-06T11:34:48;8.82;;;4.75;;
17283;SDS011;8760;52.248;20.952;2023-08-06T11:37:15;6.10;;;4.50;;
17283;SDS011;8760;52.248;20.952;2023-08-06T11:39:44;8.80;;;4.97;;
17283;SDS011;8760;52.248;20.952;2023-08-06T11:42:13;6.07;;;5.13;;
17283;SDS011;8760;52.248;20.952;2023-08-06T11:44:40;6.63;;;5.57;;
17283;SDS011;8760;52.248;20.952;2023-08-06T11:47:11;6.03;;;5.00;;
17283;SDS011;8760;52.248;20.952;2023-08-06T11:49:40;7.75;;;4.95;;
17283;SDS011;8760;52.248;20.952;2023-08-06T11:52:17;10.02;;;5.32;;
17283;SDS011;8760;52.248;20.952;2023-08-06T11:54:46;10.13;;;4.95;;
17283;SDS011;8760;52.248;20.952;2023-08-06T11:57:14;5.68;;;5.00;;
17283;SDS011;8760;52.248;20.952;2023-08-06T11:59:41;6.43;;;4.90;;
17283;SDS011;8760;52.248;20.952;2023-08-06T12:02:09;7.78;;;4.80;;
17283;SDS011;8760;52.248;20.952;2023-08-06T12:07:28;6.35;;;4.70;;
17283;SDS011;8760;52.248;20.952;2023-08-06T12:09:55;5.45;;;4.95;;
17283;SDS011;8760;52.248;20.952;2023-08-06T12:12:22;8.48;;;5.07;;
17283;SDS011;8760;52.248;20.952;2023-08-06T12:14:49;5.05;;;4.55;;
17283;SDS011;8760;52.248;20.952;2023-08-06T12:17:16;6.78;;;4.78;;
17283;SDS011;8760;52.248;20.952;2023-08-06T12:19:44;5.90;;;4.68;;
17283;SDS011;8760;52.248;20.952;2023-08-06T12:22:12;5.72;;;5.03;;
17283;SDS011;8760;52.248;20.952;2023-08-06T12:24:41;7.85;;;5.10;;
17283;SDS011;8760;52.248;20.952;2023-08-06T12:27:08;7.40;;;5.43;;
17283;SDS011;8760;52.248;20.952;2023-08-06T12:29:35;6.55;;;5.15;;
17283;SDS011;8760;52.248;20.952;2023-08-06T12:32:03;8.02;;;5.13;;
17283;SDS011;8760;52.248;20.952;2023-08-06T12:34:30;6.32;;;5.45;;
17283;SDS011;8760;52.248;20.952;2023-08-06T12:36:57;9.88;;;5.57;;
17283;SDS011;8760;52.248;20.952;2023-08-06T12:39:24;9.73;;;5.53;;
17283;SDS011;8760;52.248;20.952;2023-08-06T12:41:54;10.35;;;5.43;;
17283;SDS011;8760;52.248;20.952;2023-08-06T12:44:22;8.25;;;6.18;;
17283;SDS011;8760;52.248;20.952;2023-08-06T12:46:49;7.93;;;5.75;;
17283;SDS011;8760;52.248;20.952;2023-08-06T12:49:16;6.00;;;5.47;;
17283;SDS011;8760;52.248;20.952;2023-08-06T12:51:43;8.80;;;5.82;;
17283;SDS011;8760;52.248;20.952;2023-08-06T12:54:10;8.27;;;6.35;;
17283;SDS011;8760;52.248;20.952;2023-08-06T12:56:37;6.70;;;5.93;;
17283;SDS011;8760;52.248;20.952;2023-08-06T12:59:05;9.82;;;6.22;;
17283;SDS011;8760;52.248;20.952;2023-08-06T13:01:32;6.35;;;5.80;;
17283;SDS011;8760;52.248;20.952;2023-08-06T13:03:59;11.00;;;9.82;;
17283;SDS011;8760;52.248;20.952;2023-08-06T13:06:26;6.25;;;5.65;;
17283;SDS011;8760;52.248;20.952;2023-08-06T13:08:53;10.70;;;5.57;;
17283;SDS011;8760;52.248;20.952;2023-08-06T13:11:20;6.18;;;5.63;;
17283;SDS011;8760;52.248;20.952;2023-08-06T13:13:47;6.20;;;5.70;;
17283;SDS011;8760;52.248;20.952;2023-08-06T13:16:15;7.38;;;5.68;;
17283;SDS011;8760;52.248;20.952;2023-08-06T13:18:42;6.03;;;5.35;;
17283;SDS011;8760;52.248;20.952;2023-08-06T13:21:09;6.50;;;5.43;;
17283;SDS011;8760;52.248;20.952;2023-08-06T13:23:36;9.23;;;5.18;;
17283;SDS011;8760;52.248;20.952;2023-08-06T13:26:03;8.68;;;5.00;;
17283;SDS011;8760;52.248;20.952;2023-08-06T13:28:30;5.53;;;4.78;;
17283;SDS011;8760;52.248;20.952;2023-08-06T13:30:56;7.82;;;5.18;;
17283;SDS011;8760;52.248;20.952;2023-08-06T13:33:25;7.20;;;5.13;;
17283;SDS011;8760;52.248;20.952;2023-08-06T13:35:52;5.10;;;4.70;;
17283;SDS011;8760;52.248;20.952;2023-08-06T13:38:19;10.13;;;5.20;;
17283;SDS011;8760;52.248;20.952;2023-08-06T13:40:46;7.18;;;5.03;;
17283;SDS011;8760;52.248;20.952;2023-08-06T13:43:14;6.60;;;4.63;;
17283;SDS011;8760;52.248;20.952;2023-08-06T13:45:42;5.95;;;4.97;;
17283;SDS011;8760;52.248;20.952;2023-08-06T13:48:09;5.30;;;4.80;;
17283;SDS011;8760;52.248;20.952;2023-08-06T13:50:37;6.30;;;4.72;;
17283;SDS011;8760;52.248;20.952;2023-08-06T13:53:04;5.57;;;4.60;;
17283;SDS011;8760;52.248;20.952;2023-08-06T13:55:31;5.07;;;4.53;;
17283;SDS011;8760;52.248;20.952;2023-08-06T13:57:57;7.53;;;5.22;;
17283;SDS011;8760;52.248;20.952;2023-08-06T14:00:24;5.00;;;4.43;;
17283;SDS011;8760;52.248;20.952;2023-08-06T14:02:51;5.40;;;4.90;;
17283;SDS011;8760;52.248;20.952;2023-08-06T14:05:18;8.00;;;5.28;;
17283;SDS011;8760;52.248;20.952;2023-08-06T14:07:46;5.43;;;4.75;;
17283;SDS011;8760;52.248;20.952;2023-08-06T14:10:13;5.47;;;4.97;;
17283;SDS011;8760;52.248;20.952;2023-08-06T14:12:40;5.25;;;4.75;;
17283;SDS011;8760;52.248;20.952;2023-08-06T14:15:08;5.45;;;4.93;;
17283;SDS011;8760;52.248;20.952;2023-08-06T14:17:35;5.72;;;5.05;;
17283;SDS011;8760;52.248;20.952;2023-08-06T14:20:03;6.13;;;5.07;;
17283;SDS011;8760;52.248;20.952;2023-08-06T14:22:32;5.13;;;4.68;;
17283;SDS011;8760;52.248;20.952;2023-08-06T14:25:00;5.32;;;4.80;;
17283;SDS011;8760;52.248;20.952;2023-08-06T14:27:27;5.63;;;4.30;;
17283;SDS011;8760;52.248;20.952;2023-08-06T14:29:54;8.30;;;4.32;;
17283;SDS011;8760;52.248;20.952;2023-08-06T14:32:21;8.85;;;5.00;;
17283;SDS011;8760;52.248;20.952;2023-08-06T14:34:48;5.00;;;4.18;;
17283;SDS011;8760;52.248;20.952;2023-08-06T14:37:15;5.75;;;4.35;;
17283;SDS011;8760;52.248;20.952;2023-08-06T14:39:42;4.60;;;4.00;;